Time;durP1;ratioP1;P1;durP2;ratioP2;P2;SDS_P1;SDS_P2;PMS_P1;PMS_P2;Temp;Humidity;BMP_temperature;BMP_pressure;BME280_temperature;BME280_humidity;BME280_pressure;Samples;Min_cycle;Max_cycle;Signal;HPM_P1;HPM_P2
2022/10/14 00:01:17;;;;;;;;;29.75;24.75;;;;;11.14;79.54;101520.59;4935327;29;10546;-68
2022/10/14 00:03:43;;;;;;;;;29.75;26.25;;;;;11.12;79.37;101530.72;4948253;28;10529;-68
2022/10/14 00:06:14;;;;;;;;;26.75;22.75;;;;;11.09;79.44;101523.81;4930065;29;10605;-68
2022/10/14 00:08:42;;;;;;;;;26.00;24.75;;;;;11.08;79.87;101532.91;4934390;29;11120;-68
2022/10/14 00:11:31;;;;;;;;;31.25;27.25;;;;;11.04;79.78;101533.47;4932647;29;10611;-69
2022/10/14 00:14:02;;;;;;;;;26.25;23.50;;;;;11.02;80.02;101528.28;4935498;29;10554;-69
2022/10/14 00:16:35;;;;;;;;;24.25;20.75;;;;;10.99;79.92;101531.31;4933724;29;10583;-68
2022/10/14 00:19:04;;;;;;;;;17.75;16.00;;;;;10.98;80.21;101523.41;4930429;29;10373;-67
2022/10/14 00:21:32;;;;;;;;;24.00;20.75;;;;;10.96;80.05;101514.66;4931107;29;10110;-68
2022/10/14 00:24:07;;;;;;;;;23.00;18.50;;;;;10.99;80.38;101508.94;4952409;28;10331;-69
2022/10/14 00:26:41;;;;;;;;;21.50;18.75;;;;;10.97;80.03;101506.41;4934289;29;10537;-69
2022/10/14 00:29:13;;;;;;;;;25.75;22.25;;;;;10.92;79.84;101511.50;4930094;28;10454;-66
2022/10/14 00:31:42;;;;;;;;;26.50;25.75;;;;;10.87;80.24;101516.59;4921835;29;10733;-67
2022/10/14 00:34:11;;;;;;;;;28.75;28.25;;;;;10.85;79.79;101518.63;4933895;29;11373;-68
2022/10/14 00:36:39;;;;;;;;;26.00;20.00;;;;;10.85;80.01;101519.44;4934413;29;10619;-70
2022/10/14 00:39:10;;;;;;;;;22.00;18.00;;;;;10.87;80.04;101512.03;4942026;29;10633;-67
2022/10/14 00:41:44;;;;;;;;;26.75;24.00;;;;;10.87;80.10;101512.03;4931194;28;10535;-67
2022/10/14 00:44:19;;;;;;;;;23.00;21.00;;;;;10.84;80.02;101511.56;4934706;29;10709;-68
2022/10/14 00:46:49;;;;;;;;;25.75;21.00;;;;;10.81;80.11;101501.13;4918594;28;10632;-69
2022/10/14 00:49:40;;;;;;;;;21.25;18.50;;;;;10.80;80.29;101494.91;4930149;28;10455;-67
2022/10/14 00:52:13;;;;;;;;;24.00;22.50;;;;;10.83;80.20;101489.19;4933408;29;10571;-68
2022/10/14 00:54:43;;;;;;;;;26.50;22.25;;;;;10.84;80.23;101485.47;4933982;29;10640;-67
2022/10/14 00:57:13;;;;;;;;;20.00;17.75;;;;;10.84;80.23;101474.69;4933300;29;10481;-69
2022/10/14 00:59:39;;;;;;;;;26.25;23.25;;;;;10.87;79.88;101476.19;4921353;29;10535;-68
2022/10/14 01:02:06;;;;;;;;;26.50;21.00;;;;;10.78;80.26;101467.34;4945599;28;10523;-67
2022/10/14 01:04:34;;;;;;;;;18.50;16.25;;;;;10.78;80.35;101458.44;4940759;28;10571;-68
2022/10/14 01:07:34;;;;;;;;;20.00;20.00;;;;;10.80;80.18;101451.00;4931684;28;10418;-70
2022/10/14 01:10:28;;;;;;;;;24.50;21.75;;;;;10.82;80.60;101443.59;4925446;28;10533;-67
2022/10/14 01:13:25;;;;;;;;;24.50;19.25;;;;;10.85;80.49;101441.34;4932955;28;10469;-68
2022/10/14 01:16:13;;;;;;;;;28.50;28.50;;;;;10.85;80.29;101440.50;4932003;29;10391;-69
2022/10/14 01:18:58;;;;;;;;;24.25;23.75;;;;;10.84;80.50;101434.28;4931889;29;10704;-68
2022/10/14 01:21:37;;;;;;;;;24.50;22.75;;;;;10.86;80.46;101439.50;4930503;29;10764;-69
2022/10/14 01:24:39;;;;;;;;;22.75;19.25;;;;;10.86;80.32;101448.44;4940281;29;10635;-68
2022/10/14 01:27:34;;;;;;;;;23.00;23.00;;;;;10.89;80.59;101458.81;4918794;28;10412;-69
2022/10/14 01:30:18;;;;;;;;;23.50;20.75;;;;;10.90;80.50;101456.97;4942855;28;11578;-68
2022/10/14 01:33:05;;;;;;;;;27.25;24.50;;;;;10.91;80.69;101452.44;4940911;29;10735;-69
2022/10/14 01:35:56;;;;;;;;;24.75;24.00;;;;;10.94;80.67;101460.13;4932831;29;10730;-68
2022/10/14 01:39:13;;;;;;;;;25.50;25.25;;;;;10.92;80.73;101462.19;4933490;29;10458;-68
2022/10/14 01:41:50;;;;;;;;;26.50;24.75;;;;;10.91;80.41;101471.28;4919005;29;10804;-69
2022/10/14 01:44:22;;;;;;;;;30.50;27.50;;;;;10.89;80.59;101468.75;4930213;29;10656;-69
2022/10/14 01:46:53;;;;;;;;;22.75;21.75;;;;;10.89;80.55;101461.50;4934087;29;10772;-68
2022/10/14 01:49:31;;;;;;;;;20.50;19.75;;;;;10.91;80.90;101464.03;4929872;29;10638;-68
2022/10/14 01:52:12;;;;;;;;;25.00;24.50;;;;;10.92;80.69;101463.00;4917378;29;10500;-68
2022/10/14 01:54:41;;;;;;;;;26.50;21.00;;;;;10.97;80.71;101473.25;4946967;28;11254;-67
2022/10/14 01:57:21;;;;;;;;;27.75;20.50;;;;;10.98;80.85;101466.81;4928894;29;10799;-68
2022/10/14 01:59:51;;;;;;;;;27.50;23.25;;;;;11.02;80.47;101458.22;4925498;29;10626;-67
2022/10/14 02:02:18;;;;;;;;;27.50;26.25;;;;;11.02;80.85;101452.84;4945293;28;10466;-68
2022/10/14 02:04:45;;;;;;;;;22.75;21.75;;;;;11.02;80.54;101450.16;4938159;29;10540;-68
2022/10/14 02:07:23;;;;;;;;;22.75;21.00;;;;;11.03;80.66;101451.81;4935770;29;10590;-69
2022/10/14 02:10:12;;;;;;;;;21.75;18.25;;;;;11.05;80.46;101447.06;4947002;28;10476;-68
2022/10/14 02:12:59;;;;;;;;;26.25;23.75;;;;;11.07;80.32;101445.03;4945422;28;10502;-68
2022/10/14 02:15:33;;;;;;;;;21.75;17.25;;;;;11.04;80.31;101429.22;4939414;28;11379;-69
2022/10/14 02:18:18;;;;;;;;;24.00;21.00;;;;;11.01;80.23;101412.59;4935494;29;10755;-69
2022/10/14 02:20:56;;;;;;;;;27.25;22.75;;;;;10.99;80.64;101417.34;4946660;29;11088;-69
2022/10/14 02:23:30;;;;;;;;;25.25;25.00;;;;;11.02;80.29;101422.34;4942432;28;10592;-70
2022/10/14 02:26:00;;;;;;;;;26.00;24.50;;;;;11.01;80.43;101418.81;4932212;29;10626;-69
2022/10/14 02:28:30;;;;;;;;;28.00;24.50;;;;;11.03;80.42;101410.56;4935095;29;10547;-69
2022/10/14 02:31:02;;;;;;;;;25.75;24.50;;;;;11.04;80.54;101410.38;4929988;29;10671;-69
2022/10/14 02:33:36;;;;;;;;;27.25;24.00;;;;;11.03;80.33;101407.88;4929460;29;10634;-68
2022/10/14 02:36:07;;;;;;;;;23.25;20.75;;;;;11.01;80.20;101410.72;4943642;28;10537;-69
2022/10/14 02:38:35;;;;;;;;;23.75;23.75;;;;;10.99;80.04;101412.78;4929339;29;10607;-68
2022/10/14 02:41:06;;;;;;;;;27.00;22.00;;;;;10.96;80.39;101413.16;4932784;29;10518;-70
2022/10/14 02:43:34;;;;;;;;;28.50;23.50;;;;;10.95;80.22;101414.16;4931837;29;10610;-67
2022/10/14 02:46:04;;;;;;;;;27.50;19.75;;;;;10.97;80.38;101408.59;4930235;28;10977;-70
2022/10/14 02:48:31;;;;;;;;;25.00;21.00;;;;;10.96;80.41;101402.38;4929536;29;10627;-68
2022/10/14 02:50:58;;;;;;;;;17.75;16.00;;;;;10.97;80.54;101393.25;4930397;29;10556;-67
2022/10/14 02:53:24;;;;;;;;;23.00;22.25;;;;;10.97;80.71;101395.13;4936214;29;10472;-67
2022/10/14 02:55:51;;;;;;;;;24.75;24.75;;;;;10.95;80.41;101389.94;4937951;29;10401;-67
2022/10/14 02:58:17;;;;;;;;;31.50;26.50;;;;;10.96;80.47;101394.28;4930514;29;10590;-67
2022/10/14 03:00:44;;;;;;;;;31.50;26.00;;;;;10.98;80.54;101394.09;4936024;29;11212;-68
2022/10/14 03:03:11;;;;;;;;;30.00;21.00;;;;;10.98;80.56;101386.00;4924999;29;10639;-68
2022/10/14 03:05:38;;;;;;;;;28.00;26.25;;;;;10.99;80.66;101388.53;4932637;29;10484;-67
2022/10/14 03:08:10;;;;;;;;;25.00;23.75;;;;;11.01;80.77;101386.47;4938702;29;10603;-68
2022/10/14 03:10:38;;;;;;;;;33.50;27.25;;;;;11.04;80.32;101383.44;4931030;29;10474;-68
2022/10/14 03:13:07;;;;;;;;;27.75;25.00;;;;;11.05;80.42;101378.88;4931872;29;10762;-68
2022/10/14 03:15:39;;;;;;;;;21.25;20.50;;;;;11.05;80.22;101384.25;4945573;28;10795;-67
2022/10/14 03:18:08;;;;;;;;;22.25;20.25;;;;;11.06;80.68;101377.84;4926018;29;10470;-67
2022/10/14 03:20:43;;;;;;;;;23.75;18.25;;;;;11.07;80.60;101377.69;4926733;29;10446;-67
2022/10/14 03:23:11;;;;;;;;;22.50;21.00;;;;;11.07;80.62;101371.47;4931951;29;10565;-68
2022/10/14 03:25:39;;;;;;;;;21.00;20.75;;;;;11.08;80.45;101373.97;4935491;28;10631;-68
2022/10/14 03:28:10;;;;;;;;;22.50;21.00;;;;;11.10;80.63;101369.25;4933419;29;10595;-67
2022/10/14 03:30:46;;;;;;;;;28.50;25.75;;;;;11.08;80.49;101367.75;4935373;29;10552;-69
2022/10/14 03:33:21;;;;;;;;;37.75;32.25;;;;;11.08;80.67;101357.78;4934775;29;11279;-69
2022/10/14 03:36:05;;;;;;;;;28.50;24.25;;;;;11.10;80.72;101354.91;4931963;29;10654;-68
2022/10/14 03:38:48;;;;;;;;;30.50;26.50;;;;;11.11;80.55;101345.81;4955284;28;11289;-67
2022/10/14 03:41:24;;;;;;;;;28.75;24.75;;;;;11.11;80.75;101343.13;4934396;29;10642;-69
2022/10/14 03:43:51;;;;;;;;;39.75;34.75;;;;;11.10;80.54;101345.00;4933782;29;10438;-68
2022/10/14 03:46:18;;;;;;;;;36.25;31.00;;;;;11.10;80.55;101336.91;4947708;29;10749;-67
2022/10/14 03:48:48;;;;;;;;;36.50;31.75;;;;;11.11;80.86;101335.03;4935443;29;10797;-69
2022/10/14 03:51:15;;;;;;;;;31.50;26.00;;;;;11.13;80.91;101323.03;4932624;29;10922;-68
2022/10/14 03:53:42;;;;;;;;;30.50;30.00;;;;;11.16;80.85;101327.22;4927581;29;10812;-69
2022/10/14 03:56:11;;;;;;;;;47.00;39.00;;;;;11.12;80.90;101325.94;4931373;28;10681;-67
2022/10/14 03:58:37;;;;;;;;;35.75;31.75;;;;;11.12;81.16;101317.84;4904387;29;11229;-68
2022/10/14 04:01:10;;;;;;;;;37.00;30.50;;;;;11.14;81.11;101327.44;4955453;28;10522;-69
2022/10/14 04:03:56;;;;;;;;;32.75;28.75;;;;;11.18;81.24;101319.81;4935878;28;10602;-69
2022/10/14 04:06:26;;;;;;;;;28.75;27.75;;;;;11.20;81.27;101323.13;4934706;29;10660;-72
2022/10/14 04:08:56;;;;;;;;;28.75;26.00;;;;;11.20;81.03;101317.75;4946336;29;10615;-68
2022/10/14 04:11:30;;;;;;;;;31.50;26.00;;;;;11.22;81.29;101315.72;4942841;29;11246;-69
2022/10/14 04:14:02;;;;;;;;;21.00;21.00;;;;;11.23;81.44;101312.00;4923042;29;11431;-69
2022/10/14 04:16:31;;;;;;;;;33.50;26.25;;;;;11.24;81.63;101310.97;4937572;29;10384;-69
2022/10/14 04:19:16;;;;;;;;;28.75;23.50;;;;;11.25;81.38;101314.50;4933764;29;11317;-68
2022/10/14 04:21:42;;;;;;;;;26.50;20.50;;;;;11.27;81.80;101307.91;4928324;29;11112;-68
2022/10/14 04:24:09;;;;;;;;;30.00;25.25;;;;;11.29;81.46;101307.69;4930823;29;10537;-69
2022/10/14 04:26:49;;;;;;;;;25.50;22.75;;;;;11.31;81.79;101303.81;4944304;29;10543;-68
2022/10/14 04:29:23;;;;;;;;;29.75;24.00;;;;;11.32;81.63;101302.78;4933046;29;10424;-68
2022/10/14 04:31:56;;;;;;;;;37.25;29.25;;;;;11.33;81.46;101314.38;4932730;28;10478;-68
2022/10/14 04:34:22;;;;;;;;;26.00;23.75;;;;;11.31;81.52;101311.91;4932419;29;10643;-68
2022/10/14 04:36:53;;;;;;;;;25.25;24.25;;;;;11.32;81.52;101305.47;4946312;28;10371;-68
2022/10/14 04:39:37;;;;;;;;;37.25;29.75;;;;;11.30;81.56;101304.84;4932989;29;10442;-67
2022/10/14 04:42:05;;;;;;;;;22.50;22.00;;;;;11.30;81.88;101302.16;4949918;28;10644;-67
2022/10/14 04:44:32;;;;;;;;;24.25;23.00;;;;;11.28;81.45;101297.97;4932000;28;10442;-67
2022/10/14 04:47:00;;;;;;;;;33.25;25.00;;;;;11.27;81.67;101290.91;4949520;28;10529;-67
2022/10/14 04:49:28;;;;;;;;;27.25;24.50;;;;;11.27;81.96;101291.72;4947624;28;10499;-69
2022/10/14 04:52:13;;;;;;;;;27.25;26.75;;;;;11.29;81.88;101280.75;4932621;29;10400;-67
2022/10/14 04:54:49;;;;;;;;;20.75;20.75;;;;;11.30;82.40;101279.72;4932989;29;10506;-68
2022/10/14 04:57:22;;;;;;;;;29.75;29.00;;;;;11.30;82.12;101271.63;4933252;29;10373;-68
2022/10/14 04:59:48;;;;;;;;;23.75;19.75;;;;;11.28;81.99;101271.00;4929572;29;10591;-67
2022/10/14 05:02:40;;;;;;;;;22.50;20.75;;;;;11.28;82.03;101266.44;4985327;23;10597;-64
2022/10/14 05:05:08;;;;;;;;;24.75;21.50;;;;;11.30;82.20;101260.84;4963464;28;10313;-65
2022/10/14 05:07:37;;;;;;;;;23.00;20.75;;;;;11.32;82.26;101259.66;4952315;28;10447;-65
2022/10/14 05:10:33;;;;;;;;;22.00;21.25;;;;;11.33;81.97;101252.41;4963306;28;10103;-65
2022/10/14 05:13:02;;;;;;;;;23.25;19.25;;;;;11.33;81.90;101250.53;4951747;28;10292;-65
2022/10/14 05:15:34;;;;;;;;;25.50;20.50;;;;;11.35;82.13;101244.97;4958543;28;10922;-65
2022/10/14 05:18:09;;;;;;;;;21.50;16.50;;;;;11.36;81.99;101246.63;4965136;28;10404;-65
2022/10/14 05:20:48;;;;;;;;;24.00;18.50;;;;;11.35;81.78;101242.28;4967788;28;10277;-64
2022/10/14 05:23:16;;;;;;;;;22.25;21.25;;;;;11.36;82.03;101239.38;4951092;28;10265;-64
2022/10/14 05:25:43;;;;;;;;;26.25;24.00;;;;;11.35;82.10;101235.03;4941810;28;10207;-65
2022/10/14 05:28:10;;;;;;;;;25.25;20.00;;;;;11.38;82.42;101233.78;4950008;28;10259;-64
2022/10/14 05:30:41;;;;;;;;;27.75;22.25;;;;;11.38;81.86;101228.41;4943393;28;10366;-64
2022/10/14 05:33:10;;;;;;;;;27.75;21.75;;;;;11.39;82.54;101225.53;4968010;28;10371;-65
2022/10/14 05:35:37;;;;;;;;;22.25;18.75;;;;;11.41;82.37;101227.19;4951269;28;10197;-64
2022/10/14 05:38:25;;;;;;;;;24.50;21.00;;;;;11.43;82.29;101230.56;4966712;28;10357;-64
2022/10/14 05:40:56;;;;;;;;;21.50;20.00;;;;;11.44;82.26;101224.97;4953718;28;10271;-64
2022/10/14 05:43:24;;;;;;;;;21.75;18.00;;;;;11.44;82.23;101222.25;4952075;28;10189;-65
2022/10/14 05:45:58;;;;;;;;;20.75;20.75;;;;;11.46;82.23;101214.81;4937997;28;10868;-64
2022/10/14 05:48:27;;;;;;;;;27.50;23.75;;;;;11.45;82.33;101207.75;4956508;28;10484;-64
2022/10/14 05:50:54;;;;;;;;;23.50;20.75;;;;;11.46;82.45;101213.97;4941466;28;10498;-65
2022/10/14 05:53:23;;;;;;;;;28.75;23.00;;;;;11.47;82.38;101211.09;4947758;29;10146;-65
2022/10/14 05:56:00;;;;;;;;;27.00;23.50;;;;;11.49;82.59;101211.75;4933363;28;10293;-64
2022/10/14 05:58:27;;;;;;;;;20.50;19.00;;;;;11.48;82.00;101210.06;4933475;29;10285;-64
2022/10/14 06:00:54;;;;;;;;;24.75;21.00;;;;;11.49;82.35;101208.22;4946928;28;10206;-65
2022/10/14 06:03:20;;;;;;;;;23.50;20.00;;;;;11.49;82.49;101208.22;4935992;28;10357;-63
2022/10/14 06:05:48;;;;;;;;;23.25;20.50;;;;;11.46;82.42;101204.03;4950302;28;10124;-63
2022/10/14 06:08:15;;;;;;;;;24.00;18.50;;;;;11.48;82.62;101204.69;4951939;28;10194;-64
2022/10/14 06:10:43;;;;;;;;;23.00;17.00;;;;;11.51;82.90;101200.78;4949537;28;10145;-63
2022/10/14 06:13:09;;;;;;;;;24.25;20.00;;;;;11.54;82.46;101203.91;4951961;28;10049;-63
2022/10/14 06:15:37;;;;;;;;;16.75;13.50;;;;;11.56;82.68;101201.88;4945619;28;10148;-63
2022/10/14 06:18:04;;;;;;;;;21.75;18.75;;;;;11.57;82.55;101197.31;4964484;28;9890;-63
2022/10/14 06:20:32;;;;;;;;;13.50;11.00;;;;;11.59;82.85;101195.25;4960541;28;9936;-63
2022/10/14 06:22:59;;;;;;;;;17.75;15.00;;;;;11.60;82.48;101196.94;4944930;28;9988;-63
2022/10/14 06:25:25;;;;;;;;;23.00;16.00;;;;;11.60;82.29;101191.53;4947855;28;10013;-63
2022/10/14 06:27:52;;;;;;;;;18.25;17.00;;;;;11.64;82.68;101192.81;4948288;28;9985;-64
2022/10/14 06:30:18;;;;;;;;;12.50;12.50;;;;;11.64;82.48;101192.81;4951002;28;10054;-64
2022/10/14 06:32:45;;;;;;;;;13.00;11.25;;;;;11.66;82.65;101196.13;4947786;28;9906;-63
2022/10/14 06:35:12;;;;;;;;;10.50;10.50;;;;;11.66;82.38;101198.00;4950595;28;9899;-63
2022/10/14 06:37:38;;;;;;;;;12.00;12.00;;;;;11.68;82.53;101186.00;4944357;28;9949;-64
2022/10/14 06:40:05;;;;;;;;;15.25;14.50;;;;;11.69;82.24;101178.75;4949951;28;9756;-65
2022/10/14 06:42:32;;;;;;;;;11.50;11.00;;;;;11.70;82.53;101183.94;4953284;28;9876;-65
2022/10/14 06:44:59;;;;;;;;;11.00;9.00;;;;;11.70;82.45;101178.53;4945632;28;9978;-65
2022/10/14 06:47:25;;;;;;;;;13.25;12.00;;;;;11.71;82.53;101169.44;4941465;28;9716;-63
2022/10/14 06:49:52;;;;;;;;;11.00;9.00;;;;;11.74;82.38;101166.34;4944747;28;9827;-64
2022/10/14 06:52:18;;;;;;;;;10.00;8.75;;;;;11.76;82.31;101167.00;4951210;28;9816;-63
2022/10/14 06:54:45;;;;;;;;;13.00;11.00;;;;;11.76;82.50;101161.59;4964417;28;9717;-64
2022/10/14 06:57:14;;;;;;;;;10.50;9.00;;;;;11.79;82.50;101158.53;4949123;28;10000;-64
2022/10/14 06:59:40;;;;;;;;;13.50;11.50;;;;;11.80;82.37;101152.09;4942068;29;9857;-65
2022/10/14 07:02:08;;;;;;;;;9.00;8.25;;;;;11.80;82.38;101152.09;4956398;28;9877;-64
2022/10/14 07:04:34;;;;;;;;;14.50;13.50;;;;;11.81;82.48;101151.06;4948145;28;10070;-64
2022/10/14 07:07:01;;;;;;;;;14.00;10.00;;;;;11.80;82.66;101144.00;4933841;29;9892;-64
2022/10/14 07:09:28;;;;;;;;;13.25;10.75;;;;;11.82;82.75;101144.63;4945032;28;9926;-63
2022/10/14 07:11:54;;;;;;;;;14.00;12.00;;;;;11.83;82.81;101145.53;4944563;28;9940;-63
2022/10/14 07:14:21;;;;;;;;;12.75;10.50;;;;;11.84;82.93;101136.38;4948033;29;9903;-64
2022/10/14 07:16:47;;;;;;;;;15.25;11.50;;;;;11.85;83.13;101140.75;4951267;28;9787;-64
2022/10/14 07:19:14;;;;;;;;;16.25;13.75;;;;;11.87;83.30;101136.00;4946849;28;9990;-64
2022/10/14 07:21:41;;;;;;;;;13.75;12.75;;;;;11.92;83.28;101143.50;4944299;28;9922;-64
2022/10/14 07:24:08;;;;;;;;;10.50;9.75;;;;;11.92;83.19;101135.41;4950443;29;9766;-66
2022/10/14 07:26:34;;;;;;;;;10.75;10.75;;;;;11.95;83.61;101127.78;4932658;28;10662;-64
2022/10/14 07:29:03;;;;;;;;;14.00;9.25;;;;;11.98;83.16;101134.63;4932673;28;9699;-64
2022/10/14 07:31:30;;;;;;;;;8.00;8.00;;;;;11.98;83.05;101142.72;4940658;29;9885;-65
2022/10/14 07:33:56;;;;;;;;;9.50;8.50;;;;;11.98;83.19;101140.00;4944803;29;9890;-64
2022/10/14 07:36:23;;;;;;;;;6.00;5.25;;;;;11.99;83.21;101136.28;4936843;29;9733;-65
2022/10/14 07:38:49;;;;;;;;;11.25;10.25;;;;;11.99;83.20;101137.13;4948400;29;9617;-64
2022/10/14 07:41:20;;;;;;;;;9.00;7.75;;;;;12.02;83.35;101142.13;4949127;29;9724;-65
2022/10/14 07:43:49;;;;;;;;;8.25;7.00;;;;;12.03;83.36;101140.25;4951820;28;9672;-65
2022/10/14 07:46:27;;;;;;;;;12.25;11.25;;;;;12.04;83.60;101144.63;4946568;28;11502;-65
2022/10/14 07:48:58;;;;;;;;;10.50;9.50;;;;;12.05;83.47;101141.72;4950172;28;9831;-65
2022/10/14 07:51:26;;;;;;;;;11.75;11.75;;;;;12.07;83.68;101138.81;4949409;29;9893;-65
2022/10/14 07:53:54;;;;;;;;;13.00;13.00;;;;;12.09;83.81;101145.72;4947118;28;9903;-65
2022/10/14 07:56:21;;;;;;;;;13.00;7.75;;;;;12.10;83.88;101135.75;4948599;28;10015;-65
2022/10/14 07:58:48;;;;;;;;;12.00;9.00;;;;;12.14;83.85;101139.72;4949503;28;10566;-65
2022/10/14 08:01:17;;;;;;;;;10.00;8.50;;;;;12.17;83.94;101133.09;4947563;28;9812;-65
2022/10/14 08:03:46;;;;;;;;;8.75;7.00;;;;;12.20;83.77;101135.41;4945737;28;9761;-65
2022/10/14 08:06:13;;;;;;;;;10.50;9.75;;;;;12.21;83.54;101134.38;4946834;28;10494;-63
2022/10/14 08:08:40;;;;;;;;;11.50;10.25;;;;;12.23;83.90;101130.44;4950140;29;10611;-64
2022/10/14 08:11:40;;;;;;;;;9.75;9.75;;;;;12.26;83.80;101127.34;4937360;28;9759;-66
2022/10/14 08:14:07;;;;;;;;;11.50;8.25;;;;;12.29;83.75;101129.66;4934992;28;9840;-65
2022/10/14 08:16:34;;;;;;;;;11.25;10.25;;;;;12.31;83.93;101126.75;4953983;28;9560;-65
2022/10/14 08:19:05;;;;;;;;;12.00;11.00;;;;;12.34;83.96;101131.75;4952835;28;9704;-65
2022/10/14 08:21:40;;;;;;;;;11.00;10.50;;;;;12.35;84.06;101125.31;4939669;29;9924;-64
2022/10/14 08:24:07;;;;;;;;;11.00;9.00;;;;;12.36;84.17;101135.94;4940572;28;9732;-65
2022/10/14 08:26:36;;;;;;;;;6.75;6.25;;;;;12.40;84.18;101122.00;4953641;28;9828;-65
2022/10/14 08:29:05;;;;;;;;;5.50;5.00;;;;;12.44;84.07;101126.84;4947727;28;9676;-65
2022/10/14 08:31:32;;;;;;;;;11.50;10.25;;;;;12.46;84.04;101127.44;4949015;28;10197;-65
2022/10/14 08:33:59;;;;;;;;;7.50;6.00;;;;;12.49;84.03;101120.84;4951247;28;9738;-65
2022/10/14 08:36:25;;;;;;;;;8.00;8.00;;;;;12.50;84.01;101123.31;4952954;28;9566;-65
2022/10/14 08:38:53;;;;;;;;;11.25;7.50;;;;;12.56;84.04;101130.63;4945057;28;9387;-65
2022/10/14 08:41:24;;;;;;;;;8.00;7.25;;;;;12.60;83.96;101122.97;4953502;28;9484;-64
2022/10/14 08:44:15;;;;;;;;;9.00;8.00;;;;;12.61;83.85;101127.34;4953074;28;9468;-65
2022/10/14 08:46:50;;;;;;;;;8.50;8.50;;;;;12.63;83.96;101120.69;4950652;28;9426;-65
2022/10/14 08:49:44;;;;;;;;;13.00;10.75;;;;;12.68;84.10;101120.09;4953280;28;9630;-65
2022/10/14 08:53:04;;;;;;;;;9.00;6.75;;;;;12.72;84.13;101117.81;4946846;28;10267;-65
2022/10/14 08:55:35;;;;;;;;;7.50;7.50;;;;;12.76;84.24;101113.66;4939721;29;9648;-66
2022/10/14 08:58:12;;;;;;;;;6.75;6.00;;;;;12.76;84.05;101117.22;4939195;29;9653;-65
2022/10/14 09:00:41;;;;;;;;;12.25;10.75;;;;;12.80;84.24;101115.78;4945697;28;9483;-67
2022/10/14 09:03:19;;;;;;;;;12.25;10.25;;;;;12.85;84.38;101104.38;4949013;28;9661;-65
2022/10/14 09:05:57;;;;;;;;;9.25;9.25;;;;;12.87;84.50;101111.22;4941751;28;9794;-65
2022/10/14 09:08:31;;;;;;;;;11.00;11.00;;;;;12.88;84.60;101114.75;4942591;28;9550;-65
2022/10/14 09:10:59;;;;;;;;;11.00;9.75;;;;;12.93;84.81;101106.06;4950962;28;9559;-65
2022/10/14 09:13:34;;;;;;;;;12.25;12.00;;;;;12.95;84.72;101096.69;4950155;28;9651;-65
2022/10/14 09:16:07;;;;;;;;;17.75;12.00;;;;;12.99;84.89;101097.94;4946108;28;10259;-65
2022/10/14 09:18:44;;;;;;;;;16.25;14.75;;;;;13.02;84.70;101100.25;4952212;28;9885;-65
2022/10/14 09:21:32;;;;;;;;;13.25;12.25;;;;;13.03;84.90;101096.50;4947869;28;9716;-65
2022/10/14 09:24:27;;;;;;;;;17.25;16.50;;;;;13.05;84.99;101088.22;4950248;28;9468;-65
2022/10/14 09:26:58;;;;;;;;;16.75;15.25;;;;;13.09;85.05;101087.59;4937455;28;9784;-65
2022/10/14 09:29:33;;;;;;;;;15.00;14.75;;;;;13.16;85.30;101084.88;4944145;28;9614;-65
2022/10/14 09:32:05;;;;;;;;;19.50;17.00;;;;;13.16;85.01;101084.88;4953450;28;9607;-65
2022/10/14 09:34:43;;;;;;;;;18.50;17.75;;;;;13.19;85.29;101087.19;4948715;28;9662;-64
2022/10/14 09:37:24;;;;;;;;;20.50;17.00;;;;;13.23;85.28;101087.66;4934277;29;9642;-64
2022/10/14 09:39:54;;;;;;;;;24.25;21.00;;;;;13.27;85.41;101083.50;4951911;28;9787;-63
2022/10/14 09:42:47;;;;;;;;;15.75;14.25;;;;;13.30;85.35;101083.09;4950954;28;9820;-64
2022/10/14 09:45:17;;;;;;;;;13.67;10.33;;;;;13.32;85.28;101081.00;4935619;28;9574;-63
2022/10/14 09:47:49;;;;;;;;;13.00;12.50;;;;;13.33;85.38;101077.28;4948100;28;9311;-65
2022/10/14 09:50:39;;;;;;;;;20.50;17.75;;;;;13.38;85.27;101071.25;4950006;28;9481;-65
2022/10/14 09:53:15;;;;;;;;;13.67;12.00;;;;;13.38;85.40;101073.94;4949269;28;9514;-64
2022/10/14 09:55:48;;;;;;;;;15.00;11.50;;;;;13.41;85.49;101074.38;4951637;28;10050;-67
2022/10/14 09:58:17;;;;;;;;;16.67;15.00;;;;;13.43;85.66;101072.28;4958731;28;9484;-64
2022/10/14 10:00:45;;;;;;;;;14.50;12.50;;;;;13.43;85.62;101066.88;4947825;28;9495;-64
2022/10/14 10:03:31;;;;;;;;;15.33;9.00;;;;;13.42;85.72;101062.50;4944282;28;9480;-65
2022/10/14 10:06:09;;;;;;;;;10.00;9.00;;;;;13.45;85.94;101067.50;4948427;28;9453;-64
2022/10/14 10:08:40;;;;;;;;;11.33;9.00;;;;;13.48;86.13;101061.66;4951528;28;9259;-64
2022/10/14 10:11:10;;;;;;;;;8.67;7.33;;;;;13.50;86.00;101062.28;4948641;28;9982;-65
2022/10/14 10:13:43;;;;;;;;;4.00;4.00;;;;;13.58;86.38;101070.19;4952353;28;9391;-65
2022/10/14 10:16:18;;;;;;;;;14.00;12.33;;;;;13.60;86.18;101059.16;4935945;28;9337;-65
2022/10/14 10:18:44;;;;;;;;;10.33;10.00;;;;;13.61;86.13;101052.69;4945914;28;9419;-65
2022/10/14 10:21:18;;;;;;;;;9.50;8.25;;;;;13.65;86.10;101059.34;4950503;28;9317;-65
2022/10/14 10:23:54;;;;;;;;;16.67;11.67;;;;;13.65;85.92;101053.13;4952474;28;9541;-65
2022/10/14 10:26:33;;;;;;;;;13.67;10.67;;;;;13.66;86.10;101054.81;4949321;28;9249;-64
2022/10/14 10:29:02;;;;;;;;;12.33;11.00;;;;;13.70;86.27;101042.53;4949755;28;9374;-64
2022/10/14 10:31:46;;;;;;;;;13.25;12.50;;;;;13.69;86.04;101038.97;4946833;28;9400;-65
2022/10/14 10:34:48;;;;;;;;;11.67;11.67;;;;;13.66;86.18;101042.09;4947334;28;9505;-65
2022/10/14 10:37:25;;;;;;;;;15.25;13.25;;;;;13.70;86.41;101047.94;4948990;28;9393;-67
2022/10/14 10:40:19;;;;;;;;;15.67;13.67;;;;;13.71;86.09;101038.78;4945338;28;9424;-64
2022/10/14 10:43:00;;;;;;;;;12.75;12.75;;;;;13.72;86.40;101033.13;4940606;28;10130;-64
2022/10/14 10:45:53;;;;;;;;;14.75;12.00;;;;;13.74;86.11;101032.94;4946197;28;10158;-64
2022/10/14 10:49:00;;;;;;;;;11.33;10.00;;;;;13.75;86.11;101034.59;4924244;28;9500;-64
2022/10/14 10:51:39;;;;;;;;;12.00;11.67;;;;;13.76;86.11;101030.84;4939883;28;9398;-65
2022/10/14 10:54:25;;;;;;;;;10.00;10.00;;;;;13.74;86.25;101028.38;4942955;28;9332;-65
2022/10/14 10:56:57;;;;;;;;;8.33;8.33;;;;;13.76;86.28;101026.25;4932591;29;9589;-65
2022/10/14 10:59:32;;;;;;;;;16.33;15.67;;;;;13.76;86.07;101018.16;4942235;28;9409;-65
2022/10/14 11:02:10;;;;;;;;;12.33;12.33;;;;;13.75;86.76;101016.50;4949382;28;9405;-64
2022/10/14 11:05:09;;;;;;;;;16.00;15.33;;;;;13.77;86.60;101022.53;4947577;29;9475;-65
2022/10/14 11:13:43;;;;;;;;;10.00;9.33;;;;;13.87;86.46;101007.72;4942966;28;9242;-64
2022/10/14 11:16:22;;;;;;;;;13.33;10.67;;;;;13.89;86.78;101001.03;4949642;28;10175;-66
2022/10/14 11:18:59;;;;;;;;;8.00;6.33;;;;;13.90;86.53;101001.91;4936766;28;9363;-66
2022/10/14 11:21:42;;;;;;;;;11.00;10.00;;;;;13.90;86.61;101001.91;4943264;28;9403;-65
2022/10/14 11:24:25;;;;;;;;;17.00;11.33;;;;;13.92;86.35;100992.50;4949887;28;9409;-65
2022/10/14 11:27:04;;;;;;;;;12.67;11.33;;;;;13.93;86.54;100987.94;4951910;28;9260;-64
2022/10/14 11:29:56;;;;;;;;;15.67;13.33;;;;;13.88;86.68;100980.44;4950837;28;10248;-65
2022/10/14 11:32:47;;;;;;;;;14.75;14.50;;;;;13.88;86.70;100980.44;4950114;28;9454;-64
2022/10/14 11:35:36;;;;;;;;;12.33;10.33;;;;;13.91;87.07;100981.91;4949687;29;9521;-65
2022/10/14 11:38:24;;;;;;;;;13.67;10.67;;;;;13.97;87.06;100978.34;4935419;28;9423;-65
2022/10/14 11:41:03;;;;;;;;;10.00;9.33;;;;;13.99;86.83;100981.69;4934931;29;9411;-65
2022/10/14 11:43:58;;;;;;;;;10.33;10.33;;;;;13.99;86.99;100973.56;4940797;29;9164;-63
2022/10/14 11:46:35;;;;;;;;;12.00;11.00;;;;;14.00;87.21;100967.09;4947165;28;9282;-64
2022/10/14 11:49:26;;;;;;;;;16.00;12.33;;;;;13.98;87.00;100963.78;4941211;28;9317;-64
2022/10/14 11:52:05;;;;;;;;;11.00;10.33;;;;;14.01;87.30;100955.22;4954752;28;9325;-64